Terminal Aerodrome Forecast
Issued by NWS

Home | Current Version | Previous Version | Text Only | Print | Product List | Glossary Off
Versions: 1 2 3 4 5 6 7 8 9 10 11 12 13 14 15 16 17 18 19 20 21 22 23 24 25 26 27 28 29 30 31 32 33 34 35 36 37 38 39 40 41 42 43 44 45

000
FTUS43 KPAH 120520
TAFOWB
TAF
KOWB 120520Z 1206/1306 03003KT P6SM OVC100
     FM120615 07003KT P6SM BKN060 OVC100
     FM121100 33002KT P6SM -SN BKN015 OVC035
     FM121600 30006KT P6SM BKN015 OVC030
      TEMPO 1220/1222 -SN
     FM130000 33012KT P6SM OVC024=

USA.gov is the U.S. government's official web portal to all federal, state and local government web resources and services.